createdAt,value
2019-03-21T00:00:19.455Z,85.44
2019-03-21T00:02:19.614Z,85.72
2019-03-21T00:04:19.481Z,85.64
2019-03-21T00:06:19.394Z,85.75
2019-03-21T00:08:19.345Z,85.56
2019-03-21T00:10:19.407Z,85.52
2019-03-21T00:12:19.522Z,85.76
2019-03-21T00:14:19.533Z,85.99
2019-03-21T00:16:19.453Z,86.18
2019-03-21T00:18:19.980Z,86.15
2019-03-21T00:20:19.477Z,86.17
2019-03-21T00:22:19.724Z,86.39
2019-03-21T00:24:19.504Z,86.65
2019-03-21T00:26:19.463Z,86.72
2019-03-21T00:28:19.633Z,87.04
2019-03-21T00:30:19.530Z,87.00
2019-03-21T00:32:19.540Z,87.07
2019-03-21T00:34:19.549Z,87.32
2019-03-21T00:36:19.495Z,87.69
2019-03-21T00:38:19.994Z,87.47
2019-03-21T00:40:19.374Z,87.44
2019-03-21T00:42:19.399Z,87.79
2019-03-21T00:44:19.607Z,87.45
2019-03-21T00:46:19.822Z,87.88
2019-03-21T00:48:19.530Z,88.06
2019-03-21T00:50:19.445Z,87.76
2019-03-21T00:52:19.459Z,87.83
2019-03-21T00:54:19.773Z,87.83
2019-03-21T00:56:19.370Z,87.64
2019-03-21T00:58:19.619Z,88.17
2019-03-21T01:00:19.598Z,87.95
2019-03-21T01:02:19.820Z,87.81
2019-03-21T01:04:19.624Z,88.45
2019-03-21T01:06:19.529Z,88.37
2019-03-21T01:08:19.543Z,88.51
2019-03-21T01:10:19.564Z,88.34
2019-03-21T01:12:19.539Z,88.32
2019-03-21T01:14:29.435Z,88.28
2019-03-21T01:16:19.549Z,88.47
2019-03-21T01:18:19.613Z,88.63
2019-03-21T01:20:19.418Z,89.25
2019-03-21T01:22:19.835Z,89.30
2019-03-21T01:24:19.941Z,89.18
2019-03-21T01:26:19.645Z,89.49
2019-03-21T01:28:19.658Z,89.63
2019-03-21T01:30:19.778Z,89.75
2019-03-21T01:32:19.678Z,89.58
2019-03-21T01:34:19.515Z,89.11
2019-03-21T01:36:19.602Z,89.67
2019-03-21T01:38:19.393Z,89.32
2019-03-21T01:40:19.417Z,89.51
2019-03-21T01:42:19.534Z,89.83
2019-03-21T01:44:19.556Z,89.76
2019-03-21T01:46:19.352Z,89.84
2019-03-21T01:48:19.474Z,90.10
2019-03-21T01:50:19.481Z,89.77
2019-03-21T01:52:19.488Z,90.23
2019-03-21T01:54:19.504Z,90.53
2019-03-21T01:56:19.622Z,90.41
2019-03-21T01:58:19.527Z,90.12
2019-03-21T02:00:19.534Z,90.62
2019-03-21T02:02:19.657Z,90.11
2019-03-21T02:04:19.597Z,90.29
2019-03-21T02:06:19.639Z,90.40
2019-03-21T02:08:19.575Z,90.60
2019-03-21T02:10:19.554Z,90.48
2019-03-21T02:12:19.730Z,90.97
2019-03-21T02:14:19.617Z,90.56
2019-03-21T02:16:19.633Z,91.14
2019-03-21T02:18:19.537Z,90.82
2019-03-21T02:20:19.658Z,90.71
2019-03-21T02:22:19.582Z,90.99
2019-03-21T02:24:19.518Z,90.85
2019-03-21T02:26:19.568Z,90.95
2019-03-21T02:28:19.912Z,91.04
2019-03-21T02:30:19.362Z,91.08
2019-03-21T02:32:19.400Z,90.89
2019-03-21T02:34:19.428Z,91.17
2019-03-21T02:36:19.581Z,91.31
2019-03-21T02:38:19.327Z,91.57
2019-03-21T02:40:19.566Z,91.29
2019-03-21T02:42:19.513Z,91.28
2019-03-21T02:44:19.559Z,91.28
2019-03-21T02:46:19.705Z,91.52
2019-03-21T02:48:19.564Z,91.61
2019-03-21T02:50:19.408Z,91.47
2019-03-21T02:52:19.790Z,91.16
2019-03-21T02:54:19.655Z,91.56
2019-03-21T02:56:19.629Z,91.32
2019-03-21T02:58:19.673Z,91.28
2019-03-21T03:00:19.575Z,91.23
2019-03-21T03:02:19.796Z,91.16
2019-03-21T03:04:19.613Z,91.34
2019-03-21T03:06:19.617Z,91.61
2019-03-21T03:08:19.715Z,91.72
2019-03-21T03:10:19.595Z,92.00
2019-03-21T03:12:19.646Z,91.60
2019-03-21T03:14:19.652Z,91.74
2019-03-21T03:16:19.668Z,91.71
2019-03-21T03:18:19.685Z,91.71
2019-03-21T03:20:19.677Z,91.90
2019-03-21T03:22:19.705Z,92.05
2019-03-21T03:24:19.620Z,92.09
2019-03-21T03:26:19.407Z,92.04
2019-03-21T03:28:19.577Z,92.33
2019-03-21T03:30:19.596Z,92.45
2019-03-21T03:32:19.469Z,92.38
2019-03-21T03:34:19.675Z,92.44
2019-03-21T03:36:19.682Z,92.44
2019-03-21T03:38:19.697Z,92.64
2019-03-21T03:40:19.671Z,92.71
2019-03-21T03:42:19.723Z,92.79
2019-03-21T03:44:19.728Z,92.50
2019-03-21T03:46:19.742Z,92.48
2019-03-21T03:48:20.297Z,92.87
2019-03-21T03:50:19.764Z,92.62
2019-03-21T03:52:19.781Z,93.07
2019-03-21T03:54:19.695Z,93.34
2019-03-21T03:56:19.815Z,92.98
2019-03-21T03:58:19.821Z,93.08
2019-03-21T04:00:19.619Z,92.88
2019-03-21T04:02:19.813Z,92.93
2019-03-21T04:04:19.647Z,93.05
2019-03-21T04:06:19.867Z,92.71
2019-03-21T04:08:19.661Z,92.73
2019-03-21T04:10:19.682Z,92.89
2019-03-21T04:12:19.684Z,92.88
2019-03-21T04:14:19.498Z,92.89
2019-03-21T04:16:19.632Z,92.89
2019-03-21T04:18:19.728Z,93.44
2019-03-21T04:20:19.734Z,93.26
2019-03-21T04:22:19.754Z,93.23
2019-03-21T04:24:19.548Z,93.22
2019-03-21T04:26:19.672Z,93.55
2019-03-21T04:28:19.682Z,93.31
2019-03-21T04:30:19.994Z,93.11
2019-03-21T04:32:19.806Z,93.08
2019-03-21T04:34:19.818Z,93.14
2019-03-21T04:36:20.037Z,93.57
2019-03-21T04:38:19.743Z,93.17
2019-03-21T04:40:19.645Z,93.35
2019-03-21T04:42:19.761Z,93.08
2019-03-21T04:44:19.916Z,93.36
2019-03-21T04:46:19.579Z,92.66
2019-03-21T04:48:19.643Z,92.91
2019-03-21T04:50:19.911Z,92.90
2019-03-21T04:52:19.722Z,92.95
2019-03-21T04:54:19.729Z,92.75
2019-03-21T04:56:19.735Z,93.02
2019-03-21T04:58:19.368Z,92.98
2019-03-21T05:00:19.452Z,93.14
2019-03-21T05:02:19.682Z,93.48
2019-03-21T05:04:19.477Z,93.13
2019-03-21T05:06:19.725Z,93.41
2019-03-21T05:08:19.756Z,93.36
2019-03-21T05:10:19.722Z,93.32
2019-03-21T05:12:19.939Z,93.47
2019-03-21T05:14:19.744Z,94.04
2019-03-21T05:16:19.897Z,93.64
2019-03-21T05:18:19.681Z,93.64
2019-03-21T05:20:19.994Z,93.52
2019-03-21T05:22:19.523Z,93.78
2019-03-21T05:24:19.608Z,93.90
2019-03-21T05:26:19.502Z,93.89
2019-03-21T05:28:19.647Z,94.23
2019-03-21T05:30:19.727Z,93.98
2019-03-21T05:32:19.744Z,93.59
2019-03-21T05:34:19.761Z,94.26
2019-03-21T05:36:19.969Z,94.01
2019-03-21T05:38:19.819Z,94.57
2019-03-21T05:40:19.750Z,94.16
2019-03-21T05:42:19.758Z,94.30
2019-03-21T05:44:19.911Z,94.77
2019-03-21T05:46:26.654Z,94.42
2019-03-21T05:48:19.739Z,94.32
2019-03-21T05:50:19.534Z,94.31
2019-03-21T05:52:19.861Z,94.43
2019-03-21T05:54:19.764Z,94.57
2019-03-21T05:56:19.777Z,94.55
2019-03-21T05:58:19.839Z,94.16
2019-03-21T06:00:19.702Z,94.33
2019-03-21T06:02:19.716Z,94.54
2019-03-21T06:04:19.650Z,94.40
2019-03-21T06:06:19.733Z,94.34
2019-03-21T06:08:19.688Z,94.10
2019-03-21T06:10:19.860Z,94.44
2019-03-21T06:12:20.006Z,94.03
2019-03-21T06:14:19.698Z,93.86
2019-03-21T06:16:19.898Z,93.76
2019-03-21T06:18:19.774Z,93.84
2019-03-21T06:20:19.820Z,93.75
2019-03-21T06:22:19.839Z,93.88
2019-03-21T06:24:19.742Z,93.36
2019-03-21T06:26:19.859Z,93.35
2019-03-21T06:28:19.688Z,93.24
2019-03-21T06:30:19.771Z,93.55
2019-03-21T06:32:20.093Z,92.94
2019-03-21T06:34:19.896Z,93.34
2019-03-21T06:36:19.872Z,93.19
2019-03-21T06:38:20.334Z,92.55
2019-03-21T06:40:20.253Z,91.42
2019-03-21T06:42:19.843Z,90.63
2019-03-21T06:44:19.632Z,89.38
2019-03-21T06:46:19.655Z,88.82
2019-03-21T06:48:19.775Z,87.96
2019-03-21T06:50:19.943Z,87.22
2019-03-21T06:52:19.599Z,86.07
2019-03-21T06:54:20.021Z,84.75
2019-03-21T06:56:19.824Z,83.66
2019-03-21T06:58:19.691Z,82.27
2019-03-21T07:00:19.854Z,80.77
2019-03-21T07:02:20.266Z,78.98
2019-03-21T07:04:19.981Z,77.26
2019-03-21T07:06:20.086Z,76.24
2019-03-21T07:08:19.669Z,74.76
2019-03-21T07:10:20.131Z,73.64
2019-03-21T07:12:19.913Z,72.19
2019-03-21T07:14:19.637Z,69.82
2019-03-21T07:16:19.830Z,69.01
2019-03-21T07:18:19.841Z,69.23
2019-03-21T07:20:19.797Z,67.24
2019-03-21T07:22:19.870Z,65.27
2019-03-21T07:24:20.083Z,65.25
2019-03-21T07:26:19.993Z,64.94
2019-03-21T07:28:20.235Z,64.69
2019-03-21T07:30:19.912Z,64.75
2019-03-21T07:32:19.737Z,64.96
2019-03-21T07:34:19.870Z,64.79
2019-03-21T07:36:19.742Z,64.96
2019-03-21T07:38:19.853Z,61.88
2019-03-21T07:40:19.970Z,60.27
2019-03-21T07:42:19.673Z,60.13
2019-03-21T07:44:19.797Z,60.64
2019-03-21T07:46:19.829Z,62.80
2019-03-21T07:48:19.920Z,62.65
2019-03-21T07:50:19.957Z,63.12
2019-03-21T07:52:19.892Z,62.42
2019-03-21T07:54:19.848Z,61.93
2019-03-21T07:56:19.888Z,60.79
2019-03-21T07:58:19.929Z,60.73
2019-03-21T08:00:19.984Z,60.24
2019-03-21T08:02:19.910Z,59.87
2019-03-21T08:04:19.728Z,60.88
2019-03-21T08:06:19.919Z,59.97
2019-03-21T08:08:19.926Z,60.29
2019-03-21T08:10:20.126Z,57.19
2019-03-21T08:12:20.051Z,58.57
2019-03-21T08:14:20.076Z,57.91
2019-03-21T08:16:20.075Z,56.94
2019-03-21T08:18:20.085Z,57.34
2019-03-21T08:20:20.303Z,56.36
2019-03-21T08:22:20.096Z,56.89
2019-03-21T08:24:19.999Z,57.78
2019-03-21T08:26:19.886Z,58.59
2019-03-21T08:28:19.829Z,57.15
2019-03-21T08:30:20.052Z,56.17
2019-03-21T08:32:19.842Z,56.08
2019-03-21T08:34:19.942Z,56.82
2019-03-21T08:36:19.789Z,57.58
2019-03-21T08:38:19.890Z,56.35
2019-03-21T08:40:20.013Z,55.55
2019-03-21T08:42:20.083Z,55.78
2019-03-21T08:44:19.960Z,53.87
2019-03-21T08:46:20.254Z,52.90
2019-03-21T08:48:20.064Z,53.04
2019-03-21T08:50:20.176Z,53.31
2019-03-21T08:52:19.986Z,52.42
2019-03-21T08:54:19.787Z,53.81
2019-03-21T08:56:19.826Z,53.21
2019-03-21T08:58:19.819Z,52.36
2019-03-21T09:00:20.025Z,50.72
2019-03-21T09:02:20.138Z,51.17
2019-03-21T09:04:19.999Z,52.00
2019-03-21T09:06:20.166Z,51.37
2019-03-21T09:08:19.869Z,50.57
2019-03-21T09:10:20.193Z,51.74
2019-03-21T09:12:20.008Z,49.37
2019-03-21T09:14:19.907Z,48.41
2019-03-21T09:16:20.121Z,49.43
2019-03-21T09:18:20.048Z,48.69
2019-03-21T09:20:20.140Z,48.52
2019-03-21T09:22:20.155Z,49.29
2019-03-21T09:24:20.367Z,48.32
2019-03-21T09:26:20.134Z,49.71
2019-03-21T09:28:20.089Z,47.66
2019-03-21T09:30:20.438Z,47.01
2019-03-21T09:32:20.222Z,47.22
2019-03-21T09:34:20.127Z,47.38
2019-03-21T09:36:20.343Z,45.65
2019-03-21T09:38:20.140Z,46.36
2019-03-21T09:40:19.895Z,44.92
2019-03-21T09:42:20.271Z,43.61
2019-03-21T09:44:20.192Z,43.46
2019-03-21T09:46:20.196Z,43.20
2019-03-21T09:48:20.302Z,44.68
2019-03-21T09:50:20.107Z,44.56
2019-03-21T09:52:20.018Z,43.01
2019-03-21T09:54:20.242Z,43.88
2019-03-21T09:56:20.254Z,42.03
2019-03-21T09:58:20.119Z,42.82
2019-03-21T10:00:20.578Z,42.94
2019-03-21T10:02:20.285Z,43.58
2019-03-21T10:04:20.212Z,43.48
2019-03-21T10:06:20.002Z,43.03
2019-03-21T10:08:20.417Z,42.86
2019-03-21T10:10:20.225Z,42.70
2019-03-21T10:12:20.177Z,44.31
2019-03-21T10:14:19.939Z,43.74
2019-03-21T10:16:19.904Z,43.37
2019-03-21T10:18:20.176Z,42.54
2019-03-21T10:20:20.378Z,43.00
2019-03-21T10:22:20.406Z,43.53
2019-03-21T10:24:20.316Z,43.24
2019-03-21T10:26:20.289Z,42.63
2019-03-21T10:28:20.162Z,43.45
2019-03-21T10:30:20.454Z,43.20
2019-03-21T10:32:20.430Z,43.29
2019-03-21T10:34:20.293Z,42.64
2019-03-21T10:36:20.047Z,40.16
2019-03-21T10:38:20.162Z,39.10
2019-03-21T10:40:20.296Z,41.07
2019-03-21T10:42:20.310Z,39.83
2019-03-21T10:44:20.528Z,39.11
2019-03-21T10:46:20.338Z,37.98
2019-03-21T10:48:20.143Z,37.51
2019-03-21T10:50:20.324Z,38.58
2019-03-21T10:52:20.579Z,37.39
2019-03-21T10:54:20.384Z,38.59
2019-03-21T10:56:20.391Z,37.28
2019-03-21T10:58:20.326Z,37.47
2019-03-21T11:00:20.617Z,35.99
2019-03-21T11:02:20.011Z,36.58
2019-03-21T11:04:20.230Z,37.00
2019-03-21T11:06:20.112Z,36.96
2019-03-21T11:08:20.157Z,36.93
2019-03-21T11:10:20.272Z,37.27
2019-03-21T11:12:20.283Z,35.89
2019-03-21T11:14:20.608Z,36.24
2019-03-21T11:16:20.070Z,36.36
2019-03-21T11:18:20.423Z,36.09
2019-03-21T11:20:20.542Z,35.88
2019-03-21T11:22:20.238Z,37.03
2019-03-21T11:24:20.251Z,37.03
2019-03-21T11:26:20.059Z,37.31
2019-03-21T11:28:20.105Z,36.58
2019-03-21T11:30:20.281Z,35.75
2019-03-21T11:32:20.366Z,35.88
2019-03-21T11:34:20.413Z,35.59
2019-03-21T11:36:20.432Z,36.78
2019-03-21T11:38:20.330Z,37.15
2019-03-21T11:40:20.254Z,36.92
2019-03-21T11:42:20.321Z,37.17
2019-03-21T11:44:20.203Z,37.45
2019-03-21T11:46:20.480Z,37.76
2019-03-21T11:48:20.286Z,37.65
2019-03-21T11:50:23.095Z,36.85
2019-03-21T11:52:20.422Z,36.36
2019-03-21T11:54:20.349Z,35.97
2019-03-21T11:56:20.346Z,36.21
2019-03-21T11:58:20.453Z,35.88
2019-03-21T12:00:20.156Z,34.99
2019-03-21T12:02:27.196Z,34.89
2019-03-21T12:04:20.430Z,35.02
2019-03-21T12:06:20.310Z,35.63
2019-03-21T12:08:20.309Z,34.10
2019-03-21T12:10:20.679Z,33.77
2019-03-21T12:12:20.429Z,34.38
2019-03-21T12:14:20.344Z,35.05
2019-03-21T12:16:20.210Z,34.65
2019-03-21T12:18:20.468Z,35.26
2019-03-21T12:20:20.369Z,34.80
2019-03-21T12:22:29.410Z,36.00
2019-03-21T12:24:20.293Z,35.96
2019-03-21T12:26:20.409Z,36.06
2019-03-21T12:28:20.208Z,35.71
2019-03-21T12:30:20.587Z,35.55
2019-03-21T12:32:20.652Z,35.71
2019-03-21T12:34:20.562Z,34.98
2019-03-21T12:36:20.159Z,33.68
2019-03-21T12:38:20.423Z,35.07
2019-03-21T12:40:20.496Z,34.74
2019-03-21T12:42:20.330Z,34.31
2019-03-21T12:44:20.617Z,34.64
2019-03-21T12:46:20.245Z,34.37
2019-03-21T12:48:20.323Z,35.53
2019-03-21T12:50:20.855Z,35.34
2019-03-21T12:52:20.561Z,34.37
2019-03-21T12:54:20.480Z,35.24
2019-03-21T12:56:20.572Z,34.58
2019-03-21T12:58:20.563Z,34.94
2019-03-21T13:00:20.415Z,35.01
2019-03-21T13:02:31.863Z,35.08
2019-03-21T13:04:20.740Z,34.01
2019-03-21T13:06:20.651Z,34.05
2019-03-21T13:08:20.338Z,33.68
2019-03-21T13:10:20.468Z,33.53
2019-03-21T13:12:20.478Z,34.23
2019-03-21T13:14:20.286Z,33.44
2019-03-21T13:16:22.119Z,32.87
2019-03-21T13:18:20.820Z,33.00
2019-03-21T13:20:20.271Z,32.15
2019-03-21T13:22:20.435Z,33.74
2019-03-21T13:24:20.548Z,33.24
2019-03-21T13:26:20.563Z,34.52
2019-03-21T13:28:20.567Z,35.03
2019-03-21T13:30:20.585Z,33.84
2019-03-21T13:32:20.550Z,32.17
2019-03-21T13:34:20.602Z,33.30
2019-03-21T13:36:20.627Z,33.05
2019-03-21T13:38:20.756Z,33.45
2019-03-21T13:40:20.343Z,34.44
2019-03-21T13:42:20.758Z,34.30
2019-03-21T13:44:20.505Z,33.84
2019-03-21T13:46:20.575Z,32.60
2019-03-21T13:48:20.578Z,33.44
2019-03-21T13:50:20.797Z,32.95
2019-03-21T13:52:20.715Z,32.85
2019-03-21T13:54:20.519Z,32.29
2019-03-21T13:56:20.639Z,32.72
2019-03-21T13:58:20.646Z,32.67
2019-03-21T14:00:20.787Z,32.26
2019-03-21T14:02:20.669Z,32.59
2019-03-21T14:04:20.471Z,32.59
2019-03-21T14:06:20.695Z,32.71
2019-03-21T14:08:20.539Z,32.92
2019-03-21T14:10:20.454Z,33.26
2019-03-21T14:12:20.524Z,32.81
2019-03-21T14:14:20.440Z,33.14
2019-03-21T14:16:20.649Z,33.30
2019-03-21T14:18:20.582Z,33.92
2019-03-21T14:20:20.672Z,32.83
2019-03-21T14:22:21.447Z,33.62
2019-03-21T14:24:20.699Z,34.14
2019-03-21T14:26:20.553Z,33.74
2019-03-21T14:28:20.545Z,33.50
2019-03-21T14:30:20.554Z,33.71
2019-03-21T14:32:20.473Z,33.19
2019-03-21T14:34:20.658Z,32.83
2019-03-21T14:36:20.567Z,32.65
2019-03-21T14:38:26.438Z,32.70
2019-03-21T14:40:20.690Z,32.60
2019-03-21T14:42:20.732Z,33.27
2019-03-21T14:44:20.467Z,33.29
2019-03-21T14:46:20.647Z,32.66
2019-03-21T14:48:20.626Z,32.25
2019-03-21T14:50:20.661Z,30.77
2019-03-21T14:52:20.554Z,30.91
2019-03-21T14:54:20.671Z,30.95
2019-03-21T14:56:20.492Z,31.05
2019-03-21T14:58:20.630Z,31.35
2019-03-21T15:00:20.702Z,31.52
2019-03-21T15:02:20.613Z,31.76
2019-03-21T15:04:20.632Z,31.65
2019-03-21T15:06:20.695Z,31.80
2019-03-21T15:08:20.682Z,31.71
2019-03-21T15:10:20.534Z,31.89
2019-03-21T15:12:20.674Z,32.16
2019-03-21T15:14:20.684Z,31.78
2019-03-21T15:16:21.212Z,31.81
2019-03-21T15:18:20.917Z,32.52
2019-03-21T15:20:20.525Z,32.43
2019-03-21T15:22:20.642Z,33.03
2019-03-21T15:24:20.450Z,32.92
2019-03-21T15:26:20.545Z,32.61
2019-03-21T15:28:20.770Z,32.45
2019-03-21T15:30:20.761Z,32.50
2019-03-21T15:32:20.896Z,31.89
2019-03-21T15:34:20.655Z,32.27
2019-03-21T15:36:20.712Z,32.24
2019-03-21T15:38:20.718Z,32.11
2019-03-21T15:40:20.642Z,31.40
2019-03-21T15:42:20.632Z,31.74
2019-03-21T15:44:20.538Z,31.76
2019-03-21T15:46:20.664Z,31.41
2019-03-21T15:48:21.058Z,30.97
2019-03-21T15:50:20.567Z,31.68
2019-03-21T15:52:20.715Z,31.71
2019-03-21T15:54:20.819Z,31.50
2019-03-21T15:56:20.624Z,31.12
2019-03-21T15:58:20.778Z,32.19
2019-03-21T16:00:20.647Z,32.12
2019-03-21T16:02:20.621Z,33.00
2019-03-21T16:04:20.677Z,32.62
2019-03-21T16:06:20.681Z,32.62
2019-03-21T16:08:20.741Z,32.10
2019-03-21T16:10:20.705Z,32.21
2019-03-21T16:12:20.724Z,33.21
2019-03-21T16:14:20.628Z,32.97
2019-03-21T16:16:20.632Z,32.71
2019-03-21T16:18:20.754Z,32.99
2019-03-21T16:20:20.633Z,32.94
2019-03-21T16:22:20.780Z,32.68
2019-03-21T16:24:20.743Z,32.65
2019-03-21T16:26:21.011Z,32.90
2019-03-21T16:28:20.751Z,33.14
2019-03-21T16:30:21.028Z,33.55
2019-03-21T16:32:20.526Z,33.76
2019-03-21T16:34:20.851Z,33.78
2019-03-21T16:36:20.868Z,34.08
2019-03-21T16:38:20.673Z,34.21
2019-03-21T16:40:20.682Z,34.54
2019-03-21T16:42:20.689Z,34.74
2019-03-21T16:44:20.688Z,34.55
2019-03-21T16:46:20.819Z,34.89
2019-03-21T16:48:20.666Z,35.15
2019-03-21T16:50:20.744Z,35.54
2019-03-21T16:52:20.755Z,35.54
2019-03-21T16:54:20.759Z,36.00
2019-03-21T16:56:20.747Z,35.73
2019-03-21T16:58:20.787Z,35.88
2019-03-21T17:00:20.804Z,36.13
2019-03-21T17:02:20.813Z,36.39
2019-03-21T17:04:20.837Z,36.30
2019-03-21T17:06:20.751Z,36.72
2019-03-21T17:08:20.859Z,36.97
2019-03-21T17:10:20.883Z,37.18
2019-03-21T17:12:20.885Z,37.07
2019-03-21T17:14:20.709Z,38.40
2019-03-21T17:16:21.097Z,38.53
2019-03-21T17:18:20.858Z,39.11
2019-03-21T17:20:20.919Z,39.40
2019-03-21T17:22:20.845Z,39.81
2019-03-21T17:24:29.364Z,40.11
2019-03-21T17:26:20.855Z,40.44
2019-03-21T17:28:20.919Z,40.54
2019-03-21T17:30:20.835Z,41.25
2019-03-21T17:32:20.751Z,41.58
2019-03-21T17:34:20.832Z,42.04
2019-03-21T17:36:20.956Z,42.23
2019-03-21T17:38:20.714Z,43.11
2019-03-21T17:40:20.870Z,43.40
2019-03-21T17:42:21.125Z,43.54
2019-03-21T17:44:20.759Z,44.18
2019-03-21T17:46:20.874Z,44.49
2019-03-21T17:48:20.779Z,44.79
2019-03-21T17:50:20.791Z,45.51
2019-03-21T17:52:20.797Z,45.78
2019-03-21T17:54:20.939Z,46.64
2019-03-21T17:56:21.099Z,47.46
2019-03-21T17:58:20.940Z,47.92
2019-03-21T18:00:21.124Z,48.61
2019-03-21T18:02:21.332Z,48.58
2019-03-21T18:04:20.919Z,49.01
2019-03-21T18:06:20.889Z,49.38
2019-03-21T18:08:20.900Z,49.59
2019-03-21T18:10:21.241Z,50.18
2019-03-21T18:12:21.258Z,50.32
2019-03-21T18:14:20.803Z,50.78
2019-03-21T18:16:20.751Z,51.41
2019-03-21T18:18:21.057Z,51.44
2019-03-21T18:20:20.870Z,51.44
2019-03-21T18:22:21.221Z,51.28
2019-03-21T18:24:21.092Z,52.01
2019-03-21T18:26:21.106Z,52.38
2019-03-21T18:28:21.120Z,53.24
2019-03-21T18:30:21.234Z,53.17
2019-03-21T18:32:21.121Z,53.37
2019-03-21T18:34:21.384Z,53.56
2019-03-21T18:36:21.161Z,54.16
2019-03-21T18:38:21.123Z,54.57
2019-03-21T18:40:21.306Z,54.68
2019-03-21T18:42:21.611Z,54.96
2019-03-21T18:44:21.370Z,54.80
2019-03-21T18:46:21.323Z,55.03
2019-03-21T18:48:21.338Z,55.22
2019-03-21T18:50:21.461Z,55.63
2019-03-21T18:52:21.182Z,55.67
2019-03-21T18:54:21.301Z,55.82
2019-03-21T18:56:21.144Z,56.44
2019-03-21T18:58:21.204Z,56.72
2019-03-21T19:00:21.612Z,56.67
2019-03-21T19:02:21.314Z,56.99
2019-03-21T19:04:21.308Z,57.18
2019-03-21T19:06:21.444Z,57.52
2019-03-21T19:08:21.452Z,58.26
2019-03-21T19:10:21.363Z,58.25
2019-03-21T19:12:22.483Z,58.96
2019-03-21T19:14:21.339Z,59.13
2019-03-21T19:16:21.404Z,59.19
2019-03-21T19:18:21.410Z,59.29
2019-03-21T19:20:21.390Z,59.24
2019-03-21T19:22:21.444Z,59.53
2019-03-21T19:24:21.551Z,59.66
2019-03-21T19:26:21.226Z,60.17
2019-03-21T19:28:23.807Z,60.17
2019-03-21T19:30:21.438Z,60.59
2019-03-21T19:32:21.304Z,60.74
2019-03-21T19:34:21.291Z,60.75
2019-03-21T19:36:21.386Z,60.31
2019-03-21T19:38:23.729Z,60.58
2019-03-21T19:40:21.359Z,61.17
2019-03-21T19:42:21.234Z,61.14
2019-03-21T19:44:21.301Z,61.65
2019-03-21T19:46:21.094Z,61.74
2019-03-21T19:48:21.162Z,61.83
2019-03-21T19:50:21.266Z,62.13
2019-03-21T19:52:21.223Z,62.46
2019-03-21T19:54:21.826Z,62.46
2019-03-21T19:56:21.325Z,63.12
2019-03-21T19:58:21.343Z,62.99
2019-03-21T20:00:21.354Z,63.06
2019-03-21T20:02:21.373Z,63.72
2019-03-21T20:04:21.482Z,63.70
2019-03-21T20:06:21.337Z,63.40
2019-03-21T20:08:21.415Z,63.46
2019-03-21T20:10:21.434Z,63.42
2019-03-21T20:12:21.426Z,63.32
2019-03-21T20:14:21.132Z,63.37
2019-03-21T20:16:20.871Z,63.83
2019-03-21T20:18:21.089Z,63.87
2019-03-21T20:20:21.577Z,63.90
2019-03-21T20:22:20.878Z,64.43
2019-03-21T20:24:21.387Z,64.27
2019-03-21T20:26:21.097Z,64.55
2019-03-21T20:28:21.248Z,64.87
2019-03-21T20:30:20.918Z,65.43
2019-03-21T20:32:21.307Z,65.39
2019-03-21T20:34:20.972Z,66.13
2019-03-21T20:36:20.866Z,66.62
2019-03-21T20:38:20.798Z,67.10
2019-03-21T20:40:20.967Z,67.05
2019-03-21T20:42:20.968Z,67.00
2019-03-21T20:44:20.996Z,67.47
2019-03-21T20:46:21.004Z,68.12
2019-03-21T20:48:20.813Z,68.40
2019-03-21T20:50:21.088Z,68.73
2019-03-21T20:52:20.939Z,68.99
2019-03-21T20:54:20.913Z,69.54
2019-03-21T20:56:20.963Z,69.56
2019-03-21T20:58:20.853Z,69.95
2019-03-21T21:00:21.509Z,69.72
2019-03-21T21:02:20.681Z,69.96
2019-03-21T21:04:21.181Z,70.35
2019-03-21T21:06:21.121Z,70.36
2019-03-21T21:08:21.043Z,70.55
2019-03-21T21:10:20.842Z,70.31
2019-03-21T21:12:21.059Z,70.91
2019-03-21T21:14:20.887Z,71.09
2019-03-21T21:16:20.866Z,71.00
2019-03-21T21:18:20.909Z,71.20
2019-03-21T21:20:21.068Z,71.62
2019-03-21T21:22:20.840Z,71.67
2019-03-21T21:24:21.025Z,71.85
2019-03-21T21:26:21.146Z,72.56
2019-03-21T21:28:20.770Z,72.42
2019-03-21T21:30:21.055Z,72.69
2019-03-21T21:32:20.937Z,72.47
2019-03-21T21:34:20.984Z,72.92
2019-03-21T21:36:22.184Z,73.26
2019-03-21T21:38:21.005Z,73.09
2019-03-21T21:40:21.016Z,73.25
2019-03-21T21:42:21.128Z,72.62
2019-03-21T21:44:20.926Z,72.81
2019-03-21T21:46:23.618Z,73.07
2019-03-21T21:48:20.968Z,72.85
2019-03-21T21:50:20.780Z,73.24
2019-03-21T21:52:20.983Z,73.74
2019-03-21T21:54:21.097Z,74.01
2019-03-21T21:56:21.117Z,74.47
2019-03-21T21:58:21.322Z,73.62
2019-03-21T22:00:20.974Z,74.11
2019-03-21T22:02:21.061Z,74.41
2019-03-21T22:04:21.083Z,74.73
2019-03-21T22:06:21.159Z,74.39
2019-03-21T22:08:20.975Z,75.08
2019-03-21T22:10:20.875Z,74.31
2019-03-21T22:12:21.103Z,74.62
2019-03-21T22:14:21.042Z,74.28
2019-03-21T22:16:21.033Z,74.63
2019-03-21T22:18:20.807Z,75.11
2019-03-21T22:20:20.982Z,75.33
2019-03-21T22:22:21.053Z,75.36
2019-03-21T22:24:20.950Z,75.70
2019-03-21T22:26:29.643Z,75.57
2019-03-21T22:28:20.950Z,76.19
2019-03-21T22:30:20.997Z,76.69
2019-03-21T22:32:20.964Z,76.93
2019-03-21T22:34:20.960Z,77.01
2019-03-21T22:36:21.253Z,76.82
2019-03-21T22:38:20.945Z,77.41
2019-03-21T22:40:20.953Z,77.53
2019-03-21T22:42:21.017Z,77.82
2019-03-21T22:44:20.811Z,78.15
2019-03-21T22:46:20.997Z,77.59
2019-03-21T22:48:21.007Z,77.85
2019-03-21T22:50:20.812Z,77.90
2019-03-21T22:52:21.023Z,78.46
2019-03-21T22:54:20.930Z,78.87
2019-03-21T22:56:20.856Z,78.92
2019-03-21T22:58:31.461Z,78.95
2019-03-21T23:00:20.953Z,78.85
2019-03-21T23:02:21.424Z,79.05
2019-03-21T23:04:21.101Z,79.11
2019-03-21T23:06:23.514Z,79.01
2019-03-21T23:08:20.830Z,78.97
2019-03-21T23:10:20.968Z,79.38
2019-03-21T23:12:21.037Z,79.79
2019-03-21T23:14:21.061Z,79.77
2019-03-21T23:16:20.934Z,79.48
2019-03-21T23:18:20.879Z,79.97
2019-03-21T23:20:20.889Z,79.82
2019-03-21T23:22:24.074Z,79.86
2019-03-21T23:24:20.963Z,79.86
2019-03-21T23:26:20.807Z,80.13
2019-03-21T23:28:21.046Z,80.34
2019-03-21T23:30:20.939Z,80.57
2019-03-21T23:32:20.950Z,80.38
2019-03-21T23:34:20.908Z,80.73
2019-03-21T23:36:20.977Z,81.29
2019-03-21T23:38:20.946Z,81.33
2019-03-21T23:40:20.909Z,80.89
2019-03-21T23:42:21.021Z,81.29
2019-03-21T23:44:21.333Z,81.45
2019-03-21T23:46:21.062Z,81.67
2019-03-21T23:48:20.882Z,81.94
2019-03-21T23:50:21.066Z,81.11
2019-03-21T23:52:21.177Z,81.47
2019-03-21T23:54:21.093Z,80.95
2019-03-21T23:56:21.198Z,81.00
2019-03-21T23:58:20.982Z,81.17
